sensor_id;sensor_type;location;lat;lon;timestamp;P1;durP1;ratioP1;P2;durP2;ratioP2
42092;SDS011;28974;50.316;18.960;2022-09-30T00:04:13;54.38;;;27.40;;
42092;SDS011;28974;50.316;18.960;2022-09-30T00:16:14;55.85;;;29.85;;
42092;SDS011;28974;50.316;18.960;2022-09-30T00:28:15;63.85;;;35.03;;
42092;SDS011;28974;50.316;18.960;2022-09-30T00:40:17;67.40;;;31.92;;
42092;SDS011;28974;50.316;18.960;2022-09-30T00:52:18;62.17;;;31.88;;
42092;SDS011;28974;50.316;18.960;2022-09-30T01:04:19;54.67;;;28.10;;
42092;SDS011;28974;50.316;18.960;2022-09-30T01:41:14;56.78;;;29.92;;
42092;SDS011;28974;50.316;18.960;2022-09-30T01:53:21;68.38;;;31.55;;
42092;SDS011;28974;50.316;18.960;2022-09-30T02:05:34;60.05;;;29.92;;
42092;SDS011;28974;50.316;18.960;2022-09-30T02:17:36;51.20;;;27.67;;
42092;SDS011;28974;50.316;18.960;2022-09-30T02:29:41;62.28;;;29.17;;
42092;SDS011;28974;50.316;18.960;2022-09-30T02:41:47;71.00;;;31.40;;
42092;SDS011;28974;50.316;18.960;2022-09-30T02:53:57;52.28;;;28.92;;
42092;SDS011;28974;50.316;18.960;2022-09-30T03:05:59;55.67;;;29.08;;
42092;SDS011;28974;50.316;18.960;2022-09-30T03:18:07;53.90;;;26.63;;
42092;SDS011;28974;50.316;18.960;2022-09-30T03:30:10;58.80;;;29.58;;
42092;SDS011;28974;50.316;18.960;2022-09-30T03:42:14;51.28;;;25.90;;
42092;SDS011;28974;50.316;18.960;2022-09-30T03:54:15;49.85;;;27.83;;
42092;SDS011;28974;50.316;18.960;2022-09-30T04:06:16;58.40;;;27.58;;
42092;SDS011;28974;50.316;18.960;2022-09-30T04:18:16;54.22;;;26.60;;
42092;SDS011;28974;50.316;18.960;2022-09-30T04:30:16;56.95;;;27.55;;
42092;SDS011;28974;50.316;18.960;2022-09-30T04:42:17;56.47;;;24.98;;
42092;SDS011;28974;50.316;18.960;2022-09-30T04:54:18;46.20;;;26.75;;
42092;SDS011;28974;50.316;18.960;2022-09-30T05:06:18;74.78;;;29.10;;
42092;SDS011;28974;50.316;18.960;2022-09-30T05:18:20;68.72;;;29.00;;
42092;SDS011;28974;50.316;18.960;2022-09-30T05:30:20;62.08;;;30.60;;
42092;SDS011;28974;50.316;18.960;2022-09-30T05:42:20;63.58;;;28.13;;
42092;SDS011;28974;50.316;18.960;2022-09-30T05:54:21;68.00;;;30.33;;
42092;SDS011;28974;50.316;18.960;2022-09-30T06:06:21;61.50;;;29.25;;
42092;SDS011;28974;50.316;18.960;2022-09-30T06:18:22;60.15;;;31.65;;
42092;SDS011;28974;50.316;18.960;2022-09-30T06:30:22;73.63;;;33.10;;
42092;SDS011;28974;50.316;18.960;2022-09-30T06:42:23;71.65;;;33.08;;
42092;SDS011;28974;50.316;18.960;2022-09-30T06:54:24;63.85;;;32.65;;
42092;SDS011;28974;50.316;18.960;2022-09-30T07:06:26;65.88;;;26.85;;
42092;SDS011;28974;50.316;18.960;2022-09-30T07:18:26;59.90;;;28.23;;
42092;SDS011;28974;50.316;18.960;2022-09-30T07:30:27;61.92;;;31.65;;
42092;SDS011;28974;50.316;18.960;2022-09-30T07:42:28;67.32;;;33.25;;
42092;SDS011;28974;50.316;18.960;2022-09-30T07:54:30;52.30;;;27.77;;
42092;SDS011;28974;50.316;18.960;2022-09-30T08:06:34;54.55;;;29.75;;
42092;SDS011;28974;50.316;18.960;2022-09-30T08:18:35;51.58;;;28.02;;
42092;SDS011;28974;50.316;18.960;2022-09-30T08:30:36;60.65;;;30.60;;
42092;SDS011;28974;50.316;18.960;2022-09-30T08:42:49;66.40;;;30.17;;
42092;SDS011;28974;50.316;18.960;2022-09-30T08:54:54;61.83;;;30.77;;
42092;SDS011;28974;50.316;18.960;2022-09-30T09:07:04;66.63;;;35.47;;
42092;SDS011;28974;50.316;18.960;2022-09-30T09:19:07;58.38;;;33.13;;
42092;SDS011;28974;50.316;18.960;2022-09-30T09:31:14;62.33;;;36.47;;
42092;SDS011;28974;50.316;18.960;2022-09-30T09:43:21;66.75;;;30.23;;
42092;SDS011;28974;50.316;18.960;2022-09-30T09:55:25;44.83;;;26.30;;
42092;SDS011;28974;50.316;18.960;2022-09-30T10:07:26;35.90;;;20.65;;
42092;SDS011;28974;50.316;18.960;2022-09-30T10:19:28;49.20;;;21.08;;
42092;SDS011;28974;50.316;18.960;2022-09-30T10:31:29;35.50;;;19.77;;
42092;SDS011;28974;50.316;18.960;2022-09-30T10:43:33;36.42;;;21.60;;
42092;SDS011;28974;50.316;18.960;2022-09-30T10:55:42;45.67;;;25.92;;
42092;SDS011;28974;50.316;18.960;2022-09-30T11:07:52;55.60;;;27.67;;
42092;SDS011;28974;50.316;18.960;2022-09-30T11:44:35;34.55;;;18.92;;
42092;SDS011;28974;50.316;18.960;2022-09-30T11:56:42;29.70;;;16.98;;
42092;SDS011;28974;50.316;18.960;2022-09-30T12:08:45;34.70;;;18.90;;
42092;SDS011;28974;50.316;18.960;2022-09-30T12:20:59;35.92;;;17.10;;
42092;SDS011;28974;50.316;18.960;2022-09-30T12:57:25;32.22;;;18.13;;
42092;SDS011;28974;50.316;18.960;2022-09-30T13:21:29;28.98;;;17.92;;
42092;SDS011;28974;50.316;18.960;2022-09-30T13:33:39;47.92;;;26.08;;
42092;SDS011;28974;50.316;18.960;2022-09-30T13:45:40;36.85;;;21.38;;
42092;SDS011;28974;50.316;18.960;2022-09-30T14:09:53;49.35;;;27.27;;
42092;SDS011;28974;50.316;18.960;2022-09-30T14:22:06;41.40;;;24.55;;
42092;SDS011;28974;50.316;18.960;2022-09-30T14:34:07;54.85;;;29.08;;
42092;SDS011;28974;50.316;18.960;2022-09-30T14:46:14;48.30;;;26.17;;
42092;SDS011;28974;50.316;18.960;2022-09-30T14:58:21;45.92;;;25.35;;
42092;SDS011;28974;50.316;18.960;2022-09-30T15:10:23;47.53;;;25.02;;
42092;SDS011;28974;50.316;18.960;2022-09-30T15:22:24;46.28;;;26.08;;
42092;SDS011;28974;50.316;18.960;2022-09-30T15:34:26;49.67;;;26.65;;
42092;SDS011;28974;50.316;18.960;2022-09-30T15:46:29;55.10;;;26.95;;
42092;SDS011;28974;50.316;18.960;2022-09-30T15:58:38;49.40;;;27.17;;
42092;SDS011;28974;50.316;18.960;2022-09-30T16:10:38;53.83;;;28.83;;
42092;SDS011;28974;50.316;18.960;2022-09-30T16:34:40;64.03;;;29.92;;
42092;SDS011;28974;50.316;18.960;2022-09-30T16:46:40;86.55;;;34.65;;
42092;SDS011;28974;50.316;18.960;2022-09-30T16:58:41;76.50;;;37.90;;
42092;SDS011;28974;50.316;18.960;2022-09-30T17:10:43;79.07;;;35.17;;
42092;SDS011;28974;50.316;18.960;2022-09-30T17:22:45;92.45;;;39.13;;
42092;SDS011;28974;50.316;18.960;2022-09-30T17:34:46;83.88;;;37.78;;
42092;SDS011;28974;50.316;18.960;2022-09-30T17:46:46;81.47;;;37.50;;
42092;SDS011;28974;50.316;18.960;2022-09-30T17:58:47;95.88;;;42.90;;
42092;SDS011;28974;50.316;18.960;2022-09-30T18:10:48;84.95;;;35.75;;
42092;SDS011;28974;50.316;18.960;2022-09-30T18:22:48;84.68;;;38.45;;
42092;SDS011;28974;50.316;18.960;2022-09-30T18:34:48;77.38;;;36.45;;
42092;SDS011;28974;50.316;18.960;2022-09-30T18:46:49;76.78;;;33.88;;
42092;SDS011;28974;50.316;18.960;2022-09-30T18:58:50;87.60;;;34.78;;
42092;SDS011;28974;50.316;18.960;2022-09-30T19:10:51;102.22;;;36.08;;
42092;SDS011;28974;50.316;18.960;2022-09-30T19:22:53;111.60;;;39.22;;
42092;SDS011;28974;50.316;18.960;2022-09-30T19:34:53;130.27;;;44.85;;
42092;SDS011;28974;50.316;18.960;2022-09-30T19:46:57;131.43;;;44.63;;
42092;SDS011;28974;50.316;18.960;2022-09-30T19:58:58;148.00;;;44.72;;
42092;SDS011;28974;50.316;18.960;2022-09-30T20:11:06;222.32;;;50.85;;
42092;SDS011;28974;50.316;18.960;2022-09-30T20:23:07;204.00;;;64.32;;
42092;SDS011;28974;50.316;18.960;2022-09-30T20:35:07;197.60;;;63.13;;
42092;SDS011;28974;50.316;18.960;2022-09-30T20:47:08;217.02;;;64.93;;
42092;SDS011;28974;50.316;18.960;2022-09-30T20:59:08;278.30;;;70.78;;
42092;SDS011;28974;50.316;18.960;2022-09-30T21:11:09;238.38;;;72.90;;
42092;SDS011;28974;50.316;18.960;2022-09-30T21:23:10;198.67;;;63.97;;
42092;SDS011;28974;50.316;18.960;2022-09-30T21:35:11;220.43;;;64.78;;
42092;SDS011;28974;50.316;18.960;2022-09-30T21:47:12;150.10;;;51.20;;
42092;SDS011;28974;50.316;18.960;2022-09-30T21:59:14;151.50;;;47.90;;
42092;SDS011;28974;50.316;18.960;2022-09-30T22:11:16;148.55;;;47.88;;
42092;SDS011;28974;50.316;18.960;2022-09-30T22:23:17;141.13;;;42.83;;
42092;SDS011;28974;50.316;18.960;2022-09-30T22:35:17;184.40;;;48.22;;
42092;SDS011;28974;50.316;18.960;2022-09-30T22:47:36;151.45;;;43.30;;
42092;SDS011;28974;50.316;18.960;2022-09-30T22:59:38;189.10;;;49.33;;
42092;SDS011;28974;50.316;18.960;2022-09-30T23:11:40;157.70;;;47.83;;
42092;SDS011;28974;50.316;18.960;2022-09-30T23:23:45;155.35;;;52.47;;
42092;SDS011;28974;50.316;18.960;2022-09-30T23:35:47;142.95;;;50.17;;
42092;SDS011;28974;50.316;18.960;2022-09-30T23:47:48;120.90;;;47.63;;
42092;SDS011;28974;50.316;18.960;2022-09-30T23:59:48;117.47;;;46.95;;
